.
WxDataArchive / Data Records for 2009-08-03
2009-08-02 August 2009 2009-08-04

Data Records for Monday, 03 August 2009

Time	Temp	Chill	HIndex	Humid	Dewpt	 Wind 	HiWind	WindDir	Rain 	Barom 
-----	----	-----	------	-----	-----	------	------	-------	-----	----- 
00:00	58.3	58.3	58.3	79	51.8	0	0	---	0.00	29.994 
00:05	58.3	58.3	58.3	80	52.2	0	0	---	0.00	29.994 
00:10	58.3	58.3	58.3	81	52.5	0	0	---	0.00	29.994 
00:15	58.1	58.1	58.1	81	52.3	0	0	---	0.00	29.995 
00:20	58.1	58.1	58.1	81	52.3	0	0	---	0.00	29.995 
00:25	58.1	58.1	58.1	82	52.6	0	0	---	0.00	29.995 
00:30	58.1	58.1	58.1	82	52.6	0	0	---	0.00	29.998 
00:35	58.1	58.1	58.1	83	53.0	0	0	---	0.00	29.998 
00:40	58.0	58.0	58.0	83	52.9	0	0	---	0.00	29.998 
00:45	57.8	57.8	57.8	83	52.7	0	0	---	0.00	29.999 
00:50	57.8	57.8	57.8	84	53.0	0	0	---	0.00	29.999 
00:55	57.8	57.8	57.8	84	53.0	0	0	---	0.00	29.999 
01:00	57.6	57.6	57.6	84	52.8	0	0	---	0.00	29.999 
01:05	57.6	57.6	57.6	85	53.1	0	0	---	0.00	29.999 
01:10	57.6	57.6	57.6	85	53.1	0	0	---	0.00	29.999 
01:15	57.5	57.5	57.5	86	53.3	0	0	---	0.00	29.995 
01:20	57.5	57.5	57.5	86	53.3	0	0	---	0.00	29.995 
01:25	57.3	57.3	57.3	86	53.1	0	0	---	0.00	29.995 
01:30	57.2	57.2	57.2	86	53.0	0	0	---	0.00	29.997 
01:35	57.2	57.2	57.2	86	53.0	0	0	---	0.00	29.997 
01:40	57.0	57.0	57.0	86	52.9	0	0	---	0.00	29.997 
01:45	56.9	56.9	56.9	87	53.1	0	0	---	0.00	29.994 
01:50	56.9	56.9	56.9	87	53.1	0	0	---	0.00	29.994 
01:55	56.7	56.7	56.7	88	53.2	0	0	---	0.00	29.994 
02:00	56.7	56.7	56.7	88	53.2	0	0	---	0.00	29.990 
02:05	56.6	56.6	56.6	88	53.1	0	0	---	0.00	29.990 
02:10	56.5	56.5	56.5	88	53.0	0	0	---	0.00	29.990 
02:15	56.3	56.3	56.3	88	52.8	0	0	---	0.00	29.979 
02:20	56.3	56.3	56.3	89	53.1	0	0	---	0.00	29.979 
02:25	56.2	56.2	56.2	89	53.0	0	0	---	0.00	29.979 
02:30	56.0	56.0	56.0	89	52.8	0	0	---	0.00	29.979 
02:35	56.0	56.0	56.0	90	53.1	0	0	---	0.00	29.979 
02:40	55.9	55.9	55.9	90	53.0	0	0	---	0.00	29.979 
02:45	55.9	55.9	55.9	90	53.0	0	0	---	0.00	29.979 
02:50	55.9	55.9	55.9	91	53.3	0	0	---	0.00	29.979 
02:55	55.9	55.9	55.9	91	53.3	0	0	---	0.00	29.979 
03:00	55.7	55.7	55.7	91	53.1	0	0	---	0.00	29.979 
03:05	55.7	55.7	55.7	91	53.1	0	0	---	0.00	29.979 
03:10	55.9	55.9	55.9	92	53.6	0	0	---	0.00	29.979 
03:15	55.9	55.9	55.9	92	53.6	0	0	---	0.00	29.976 
03:20	56.0	56.0	56.0	92	53.7	0	0	---	0.00	29.976 
03:25	56.0	56.0	56.0	92	53.7	0	0	---	0.00	29.976 
03:30	56.2	56.2	56.2	92	53.9	0	0	---	0.00	29.976 
03:35	56.3	56.3	56.3	92	54.0	0	0	---	0.00	29.976 
03:40	56.3	56.3	56.3	92	54.0	0	0	---	0.00	29.976 
03:45	56.3	56.3	56.3	92	54.0	0	1	315	0.00	29.971 
03:50	56.5	56.5	56.5	91	53.9	0	1	315	0.00	29.971 
03:55	56.7	56.7	56.7	91	54.1	0	0	---	0.00	29.971 
04:00	56.7	56.7	56.7	90	53.8	0	0	---	0.00	29.963 
04:05	56.9	56.9	56.9	90	54.0	0	0	---	0.00	29.963 
04:10	56.9	56.9	56.9	90	54.0	0	0	---	0.00	29.963 
04:15	56.9	56.9	56.9	89	53.7	0	0	---	0.00	29.964 
04:20	56.9	56.9	56.9	89	53.7	0	0	---	0.00	29.964 
04:25	56.7	56.7	56.7	89	53.5	0	0	---	0.00	29.964 
04:30	56.7	56.7	56.7	89	53.5	0	0	---	0.00	29.963 
04:35	56.7	56.7	56.7	89	53.5	0	0	---	0.00	29.963 
04:40	56.7	56.7	56.7	89	53.5	0	0	---	0.00	29.963 
04:45	56.7	56.7	56.7	89	53.5	0	0	---	0.00	29.962 
04:50	56.7	56.7	56.7	89	53.5	0	0	---	0.00	29.962 
04:55	56.7	56.7	56.7	89	53.5	0	0	---	0.00	29.962 
05:00	56.9	56.9	56.9	89	53.7	0	0	---	0.00	29.962 
05:05	57.0	57.0	57.0	88	53.5	0	0	---	0.00	29.962 
05:10	57.0	57.0	57.0	88	53.5	0	0	---	0.00	29.962 
05:15	57.0	57.0	57.0	88	53.5	0	0	---	0.00	29.968 
05:20	57.0	57.0	57.0	88	53.5	0	0	---	0.00	29.968 
05:25	57.2	57.2	57.2	88	53.7	0	0	---	0.00	29.968 
05:30	57.3	57.3	57.3	88	53.8	0	0	---	0.00	29.978 
05:35	57.3	57.3	57.3	88	53.8	0	0	---	0.00	29.978 
05:40	57.3	57.3	57.3	87	53.5	0	1	315	0.00	29.978 
05:45	57.5	57.5	57.5	87	53.7	0	0	---	0.00	29.977 
05:50	57.5	57.5	57.5	87	53.7	0	0	---	0.00	29.977 
05:55	57.5	57.5	57.5	87	53.7	0	0	---	0.00	29.977 
06:00	57.6	57.6	57.6	87	53.8	0	0	---	0.00	29.977 
06:05	57.6	57.6	57.6	86	53.4	0	1	315	0.00	29.977 
06:10	57.8	57.8	57.8	86	53.6	0	1	315	0.00	29.977 
06:15	58.0	58.0	58.0	85	53.5	0	1	315	0.00	29.983 
06:20	58.0	58.0	58.0	85	53.5	0	2	315	0.00	29.983 
06:25	58.0	58.0	58.0	85	53.5	0	2	315	0.00	29.983 
06:30	58.1	58.1	58.1	85	53.6	0	2	315	0.00	29.980 
06:35	58.1	58.1	58.1	85	53.6	0	0	---	0.00	29.980 
06:40	58.0	58.0	58.0	85	53.5	0	1	315	0.00	29.980 
06:45	58.0	58.0	58.0	85	53.5	0	0	---	0.00	29.972 
06:50	57.8	57.8	57.8	85	53.3	0	1	315	0.00	29.972 
06:55	57.8	57.8	57.8	85	53.3	0	1	315	0.00	29.972 
07:00	57.8	57.8	57.8	86	53.6	0	0	---	0.00	29.967 
07:05	57.8	57.8	57.8	86	53.6	0	0	---	0.00	29.967 
07:10	57.8	57.8	57.8	86	53.6	0	1	315	0.00	29.967 
07:15	58.0	58.0	58.0	86	53.8	0	1	315	0.00	29.962 
07:20	58.1	58.1	58.1	86	53.9	0	2	315	0.00	29.962 
07:25	58.3	58.3	58.3	86	54.1	0	2	315	0.00	29.962 
07:30	58.6	58.6	58.6	86	54.4	0	2	315	0.00	29.962 
07:35	58.9	58.9	58.9	85	54.4	0	1	248	0.00	29.962 
07:40	59.2	59.2	59.2	85	54.7	0	2	248	0.00	29.962 
07:45	59.6	59.6	59.6	84	54.8	0	2	248	0.00	29.961 
07:50	59.9	59.9	59.9	83	54.7	0	2	248	0.00	29.961 
07:55	60.4	60.4	60.4	83	55.2	0	2	248	0.00	29.961 
08:00	60.9	60.9	60.9	82	55.4	0	2	248	0.00	29.967 
08:05	61.3	61.3	61.3	81	55.4	1	4	270	0.00	29.967 
08:10	61.8	61.8	61.8	80	55.6	1	3	270	0.00	29.967 
08:15	62.4	62.4	62.4	79	55.8	1	4	248	0.00	29.979 
08:20	62.7	62.7	62.7	78	55.7	1	3	225	0.00	29.979 
08:25	63.2	63.2	63.2	78	56.2	1	4	248	0.00	29.979 
08:30	63.7	63.7	63.7	77	56.3	1	3	248	0.00	29.984 
08:35	64.3	64.3	64.3	77	56.9	0	3	248	0.00	29.984 
08:40	65.0	65.0	65.0	76	57.2	0	2	248	0.00	29.984 
08:45	65.8	65.8	65.8	75	57.6	0	3	248	0.00	29.986 
08:50	66.4	66.4	66.4	73	57.5	1	4	90	0.00	29.986 
08:55	66.6	66.6	66.6	72	57.3	1	3	90	0.00	29.986 
09:00	66.6	66.6	66.6	72	57.3	1	4	292	0.00	29.989 
09:05	66.4	66.4	66.4	72	57.1	1	4	248	0.00	29.989 
09:10	66.8	66.8	66.8	73	57.9	0	4	248	0.00	29.989 
09:15	66.9	66.9	66.9	73	58.0	0	2	248	0.00	29.993 
09:20	67.3	67.3	67.3	72	58.0	1	3	292	0.00	29.993 
09:25	67.4	67.4	67.4	70	57.3	1	5	270	0.00	29.993 
09:30	67.8	67.8	67.8	70	57.6	2	5	248	0.00	29.998 
09:35	68.3	68.3	68.3	70	58.1	1	5	248	0.00	29.998 
09:40	68.8	68.8	68.8	69	58.2	1	5	248	0.00	29.998 
09:45	69.1	69.1	69.1	68	58.1	2	4	248	0.00	29.991 
09:50	69.6	69.6	69.6	68	58.6	1	3	248	0.00	29.991 
09:55	70.1	70.1	70.1	66	58.2	2	7	270	0.00	29.991 
10:00	70.3	70.3	70.3	65	58.0	2	6	292	0.00	29.986 
10:05	70.6	70.6	70.6	67	59.1	2	6	270	0.00	29.986 
10:10	71.1	71.1	71.1	64	58.3	2	6	248	0.00	29.986 
10:15	71.1	71.1	71.1	64	58.3	3	8	270	0.00	29.982 
10:20	71.1	71.1	71.1	65	58.7	2	5	270	0.00	29.982 
10:25	71.1	71.1	71.1	65	58.7	1	7	248	0.00	29.982 
10:30	71.3	71.3	71.3	66	59.3	1	4	270	0.00	29.984 
10:35	71.8	71.8	71.8	65	59.4	2	9	45	0.00	29.984 
10:40	72.1	72.1	72.1	64	59.2	2	9	270	0.00	29.984 
10:45	72.3	72.3	72.3	64	59.4	1	4	270	0.00	29.978 
10:50	72.5	72.5	72.5	63	59.2	2	5	270	0.00	29.978 
10:55	72.7	72.7	72.7	63	59.4	1	4	292	0.00	29.978 
11:00	72.8	72.8	72.8	65	60.3	1	5	248	0.00	29.978 
11:05	73.0	73.0	73.0	64	60.1	2	5	270	0.00	29.978 
11:10	73.0	73.0	73.0	63	59.6	2	4	270	0.00	29.978 
11:15	73.5	73.5	73.5	65	61.0	1	6	270	0.00	29.974 
11:20	74.0	74.0	74.0	62	60.1	2	7	270	0.00	29.974 
11:25	74.2	74.2	74.2	62	60.3	2	5	248	0.00	29.974 
11:30	74.4	74.4	74.4	61	60.1	3	7	248	0.00	29.977 
11:35	74.4	74.4	74.4	62	60.5	2	4	292	0.00	29.977 
11:40	74.7	74.7	74.7	61	60.3	2	6	292	0.00	29.977 
11:45	74.7	74.7	74.7	61	60.3	3	9	248	0.00	29.967 
11:50	74.9	74.9	74.9	62	61.0	2	6	270	0.00	29.967 
11:55	75.4	75.4	77.5	62	61.5	1	6	292	0.00	29.967 
12:00	75.8	75.8	77.9	60	60.9	2	5	248	0.00	29.967 
12:05	75.6	75.6	77.7	62	61.6	2	4	292	0.00	29.967 
12:10	75.6	75.6	77.7	62	61.6	2	7	270	0.00	29.967 
12:15	75.8	75.8	77.8	62	61.8	2	9	270	0.00	29.970 
12:20	76.0	76.0	78.0	61	61.6	3	9	248	0.00	29.970 
12:25	76.1	76.1	78.0	62	62.1	2	5	292	0.00	29.970 
12:30	76.3	76.3	78.2	61	61.8	2	6	315	0.00	29.962 
12:35	76.5	76.5	78.4	61	62.0	2	8	270	0.00	29.962 
12:40	76.8	76.8	78.6	61	62.3	2	6	270	0.00	29.962 
12:45	77.0	77.0	78.8	61	62.5	3	6	248	0.00	29.957 
12:50	77.2	77.2	79.0	61	62.7	2	5	248	0.00	29.957 
12:55	77.7	77.7	79.4	61	63.2	2	7	338	0.00	29.957 
13:00	77.9	77.9	79.6	61	63.3	2	5	248	0.00	29.953 
13:05	78.3	78.3	80.0	60	63.2	2	5	248	0.00	29.953 
13:10	78.6	78.6	80.3	61	64.0	2	6	45	0.00	29.953 
13:15	78.6	78.6	80.3	60	63.5	3	9	270	0.00	29.948 
13:20	78.8	78.8	80.5	60	63.7	2	7	270	0.00	29.948 
13:25	79.2	79.2	80.7	58	63.1	2	5	270	0.00	29.948 
13:30	79.6	79.6	81.1	57	63.0	2	7	270	0.00	29.948 
13:35	79.6	79.6	81.0	56	62.5	3	7	248	0.00	29.948 
13:40	79.4	79.4	80.9	58	63.3	2	7	292	0.00	29.948 
13:45	79.8	79.8	81.4	58	63.7	2	6	270	0.00	29.934 
13:50	80.1	80.1	81.7	58	64.0	2	6	270	0.00	29.934 
13:55	80.1	80.1	81.6	57	63.5	3	9	225	0.00	29.934 
14:00	80.3	80.3	81.8	57	63.7	2	7	270	0.00	29.933 
14:05	80.5	80.5	81.8	55	62.8	2	7	248	0.00	29.933 
14:10	80.7	80.7	82.0	55	63.0	2	7	270	0.00	29.933 
14:15	80.5	80.5	81.8	55	62.8	2	7	90	0.00	29.928 
14:20	80.1	80.1	81.3	54	61.9	3	7	248	0.00	29.928 
14:25	79.6	79.6	80.9	55	62.0	3	6	270	0.00	29.928 
14:30	79.0	79.0	80.3	55	61.4	3	7	270	0.00	29.931 
14:35	78.6	78.6	80.1	57	62.1	2	6	248	0.00	29.931 
14:40	79.0	79.0	80.5	57	62.4	2	5	248	0.00	29.931 
14:45	79.2	79.2	80.6	56	62.1	2	5	270	0.00	29.933 
14:50	79.8	79.8	81.2	56	62.7	2	7	270	0.00	29.933 
14:55	80.5	80.5	81.9	56	63.3	2	7	248	0.00	29.933 
15:00	81.2	81.2	82.6	55	63.5	2	5	90	0.00	29.924 
15:05	81.8	81.8	83.5	56	64.5	2	10	248	0.00	29.924 
15:10	82.0	82.0	83.4	54	63.7	1	10	0	0.00	29.924 
15:15	82.2	82.2	83.3	52	62.8	1	3	270	0.00	29.909 
15:20	81.6	81.6	82.9	54	63.3	1	6	270	0.00	29.909 
15:25	81.8	81.8	83.3	55	64.0	1	4	270	0.00	29.909 
15:30	82.2	82.2	83.5	53	63.3	2	7	292	0.00	29.907 
15:35	82.2	82.2	83.5	53	63.3	2	5	248	0.00	29.907 
15:40	81.8	81.8	82.8	52	62.4	2	4	292	0.00	29.907 
15:45	81.4	81.4	82.4	52	62.1	2	6	248	0.00	29.906 
15:50	81.2	81.2	82.1	51	61.3	2	9	270	0.00	29.906 
15:55	81.4	81.4	82.4	52	62.1	1	7	292	0.00	29.906 
16:00	82.4	82.4	83.7	53	63.5	1	2	68	0.00	29.901 
16:05	83.4	83.4	84.2	49	62.2	1	4	112	0.00	29.901 
16:10	83.2	83.2	83.3	45	59.6	3	7	292	0.00	29.901 
16:15	82.8	82.8	83.0	46	59.9	3	9	248	0.00	29.904 
16:20	82.4	82.4	82.3	44	58.3	2	6	248	0.00	29.904 
16:25	81.8	81.8	81.9	45	58.4	1	4	315	0.00	29.904 
16:30	81.6	81.6	81.7	45	58.2	2	7	248	0.00	29.900 
16:35	82.0	82.0	82.2	46	59.1	1	8	270	0.00	29.900 
16:40	82.2	82.2	82.4	46	59.3	1	6	45	0.00	29.900 
16:45	82.0	82.0	82.1	45	58.5	2	5	0	0.00	29.894 
16:50	81.6	81.6	82.1	48	60.0	2	5	292	0.00	29.894 
16:55	81.2	81.2	81.9	50	60.8	1	4	248	0.00	29.894 
17:00	81.1	81.1	81.5	47	58.9	3	7	315	0.00	29.892 
17:05	81.2	81.2	81.9	50	60.8	1	5	68	0.00	29.892 
17:10	81.8	81.8	82.6	50	61.3	2	5	270	0.00	29.892 
17:15	82.0	82.0	82.6	49	60.9	2	9	22	0.00	29.890 
17:20	82.2	82.2	82.8	49	61.1	2	7	22	0.00	29.890 
17:25	82.0	82.0	82.8	50	61.5	1	4	292	0.00	29.890 
17:30	82.0	82.0	83.1	52	62.6	1	4	270	0.00	29.891 
17:35	82.0	82.0	82.9	51	62.1	2	6	68	0.00	29.891 
17:40	81.8	81.8	82.8	52	62.4	2	7	248	0.00	29.891 
17:45	82.0	82.0	83.1	52	62.6	2	7	270	0.00	29.891 
17:50	81.8	81.8	83.0	53	63.0	2	7	270	0.00	29.891 
17:55	81.4	81.4	82.7	54	63.1	2	6	292	0.00	29.891 
18:00	81.4	81.4	82.7	54	63.1	1	6	270	0.00	29.893 
18:05	81.4	81.4	82.8	55	63.7	2	8	112	0.00	29.893 
18:10	81.2	81.2	82.6	55	63.5	1	5	68	0.00	29.893 
18:15	81.1	81.1	82.6	56	63.9	1	5	0	0.00	29.890 
18:20	80.9	80.9	82.3	55	63.2	2	4	270	0.00	29.890 
18:25	80.7	80.7	82.2	56	63.5	1	7	292	0.00	29.890 
18:30	80.7	80.7	82.2	56	63.5	1	3	270	0.00	29.893 
18:35	80.7	80.7	82.0	55	63.0	2	9	270	0.00	29.893 
18:40	80.7	80.7	81.9	54	62.5	2	7	292	0.00	29.893 
18:45	80.7	80.7	82.0	55	63.0	1	4	270	0.00	29.893 
18:50	80.7	80.7	82.0	55	63.0	2	5	292	0.00	29.893 
18:55	80.7	80.7	82.0	55	63.0	1	5	45	0.00	29.893 
19:00	80.5	80.5	81.9	56	63.3	2	9	45	0.00	29.891 
19:05	80.3	80.3	81.8	57	63.7	2	10	135	0.00	29.891 
19:10	80.1	80.1	81.5	56	63.0	2	6	270	0.00	29.891 
19:15	79.9	79.9	81.2	55	62.3	2	7	292	0.00	29.888 
19:20	79.8	79.8	81.2	56	62.7	1	5	270	0.00	29.888 
19:25	79.6	79.6	81.0	56	62.5	1	3	292	0.00	29.888 
19:30	79.4	79.4	80.8	56	62.3	2	7	292	0.00	29.889 
19:35	79.2	79.2	80.7	57	62.6	2	6	270	0.00	29.889 
19:40	79.0	79.0	80.5	57	62.4	1	5	292	0.00	29.889 
19:45	79.0	79.0	80.5	58	62.9	1	6	0	0.00	29.882 
19:50	78.8	78.8	80.3	58	62.8	2	6	112	0.00	29.882 
19:55	78.6	78.6	80.1	58	62.6	1	6	270	0.00	29.882 
20:00	78.5	78.5	80.0	58	62.5	1	5	315	0.00	29.883 
20:05	78.3	78.3	79.9	59	62.8	1	4	68	0.00	29.883 
20:10	78.1	78.1	79.8	60	63.1	1	4	248	0.00	29.883 
20:15	77.9	77.9	79.6	60	62.9	2	6	292	0.00	29.878 
20:20	77.7	77.7	79.4	61	63.2	1	7	270	0.00	29.878 
20:25	77.6	77.6	79.4	62	63.5	1	3	292	0.00	29.878 
20:30	77.2	77.2	79.0	62	63.2	1	5	248	0.00	29.883 
20:35	77.0	77.0	78.8	63	63.4	1	5	90	0.00	29.883 
20:40	76.8	76.8	78.6	63	63.2	1	2	68	0.00	29.883 
20:45	76.8	76.8	78.6	63	63.2	1	4	315	0.00	29.886 
20:50	76.7	76.7	78.5	64	63.6	0	3	292	0.00	29.886 
20:55	76.5	76.5	78.3	65	63.8	1	3	292	0.00	29.886 
21:00	76.3	76.3	78.1	65	63.6	1	3	338	0.00	29.885 
21:05	76.1	76.1	77.9	66	63.9	0	3	292	0.00	29.885 
21:10	76.0	76.0	77.8	66	63.8	0	2	292	0.00	29.885 
21:15	75.8	75.8	77.6	67	64.0	0	2	292	0.00	29.886 
21:20	75.6	75.6	77.4	67	63.9	0	2	292	0.00	29.886 
21:25	75.4	75.4	77.3	67	63.7	1	4	270	0.00	29.886 
21:30	75.4	75.4	77.3	67	63.7	1	3	270	0.00	29.888 
21:35	75.4	75.4	77.2	68	64.1	2	9	270	0.00	29.888 
21:40	75.1	75.1	76.7	71	65.0	2	5	270	0.00	29.888 
21:45	74.0	74.0	74.0	74	65.2	1	4	225	0.00	29.889 
21:50	73.5	73.5	73.5	75	65.1	1	4	248	0.00	29.889 
21:55	73.3	73.3	73.3	76	65.3	0	2	248	0.00	29.889 
22:00	73.2	73.2	73.2	76	65.2	1	4	270	0.00	29.894 
22:05	73.0	73.0	73.0	76	65.0	0	1	270	0.00	29.894 
22:10	72.8	72.8	72.8	76	64.8	0	1	270	0.00	29.894 
22:15	72.8	72.8	72.8	76	64.8	0	3	270	0.00	29.899 
22:20	72.8	72.8	72.8	76	64.8	0	2	248	0.00	29.899 
22:25	72.7	72.7	72.7	75	64.3	0	3	270	0.00	29.899 
22:30	72.7	72.7	72.7	75	64.3	0	3	225	0.00	29.900 
22:35	72.5	72.5	72.5	75	64.1	0	2	225	0.00	29.900 
22:40	72.5	72.5	72.5	75	64.1	0	2	225	0.00	29.900 
22:45	72.3	72.3	72.3	75	63.9	0	2	248	0.00	29.903 
22:50	72.3	72.3	72.3	75	63.9	0	3	248	0.00	29.903 
22:55	72.3	72.3	72.3	75	63.9	0	1	248	0.00	29.903 
23:00	72.5	72.5	72.5	75	64.1	0	2	0	0.00	29.904 
23:05	72.5	72.5	72.5	75	64.1	0	2	248	0.00	29.904 
23:10	72.5	72.5	72.5	74	63.7	0	2	248	0.00	29.904 
23:15	72.7	72.7	72.7	74	63.9	0	1	248	0.00	29.901 
23:20	72.7	72.7	72.7	74	63.9	0	2	248	0.00	29.901 
23:25	72.7	72.7	72.7	74	63.9	1	4	270	0.00	29.901 
23:30	72.7	72.7	72.7	74	63.9	0	1	292	0.00	29.901 
23:35	72.5	72.5	72.5	74	63.7	0	3	248	0.00	29.901 
23:40	72.5	72.5	72.5	74	63.7	0	2	270	0.00	29.901 
23:45	72.3	72.3	72.3	74	63.5	0	3	270	0.00	29.901 
23:50	72.1	72.1	72.1	75	63.7	0	3	270	0.00	29.901 
23:55	72.0	72.0	72.0	75	63.6	0	3	270	0.00	29.901 

CoCoRaHS
IN-AL-39
A2 Web Hosting
Creative Commons License
GoDaddy
search engine by freefind advanced

loaded 2018-11-13 17:18:02 • last modified 2010-11-18 10:43:29
Privacy PolicyDisclaimer
• wx.awcolley.com is powered by PmWiki v.2002016 •
• all content (unless otherwise noted) © 2018 A W Colley